createdAt,value
2023-04-05T00:00:35.076Z,96596.94
2023-04-05T00:01:40.409Z,96596.94
2023-04-05T00:02:45.120Z,96591.84
2023-04-05T00:03:47.772Z,96597.72
2023-04-05T00:04:58.496Z,96597.69
2023-04-05T00:06:05.657Z,96595.13
2023-04-05T00:07:12.594Z,96597.66
2023-04-05T00:08:24.006Z,96600.13
2023-04-05T00:09:28.891Z,96600.13
2023-04-05T00:10:31.845Z,96595.91
2023-04-05T00:11:36.977Z,96599.28
2023-04-05T00:12:39.047Z,96596.72
2023-04-05T00:13:43.674Z,96595.06
2023-04-05T00:14:46.232Z,96593.38
2023-04-05T00:15:52.696Z,96589.16
2023-04-05T00:16:55.267Z,96594.22
2023-04-05T00:18:00.487Z,96584.91
2023-04-05T00:19:02.600Z,96587.50
2023-04-05T00:20:08.286Z,96588.38
2023-04-05T00:21:14.801Z,96590.09
2023-04-05T00:22:20.371Z,96580.78
2023-04-05T00:23:23.166Z,96590.06
2023-04-05T00:24:29.685Z,96591.72
2023-04-05T00:25:31.729Z,96583.25
2023-04-05T00:26:36.540Z,96581.53
2023-04-05T00:27:38.954Z,96582.38
2023-04-05T00:28:43.584Z,96581.50
2023-04-05T00:29:45.649Z,96579.81
2023-04-05T00:30:50.397Z,96583.16
2023-04-05T00:31:52.820Z,96578.88
2023-04-05T00:32:57.490Z,96573.81
2023-04-05T00:33:59.791Z,96578.88
2023-04-05T00:35:04.498Z,96577.22
2023-04-05T00:36:13.552Z,96568.75
2023-04-05T00:37:18.242Z,96567.94
2023-04-05T00:38:20.367Z,96567.09
2023-04-05T00:39:25.083Z,96564.56
2023-04-05T00:40:27.723Z,96572.16
2023-04-05T00:41:32.395Z,96569.63
2023-04-05T00:42:34.492Z,96566.22
2023-04-05T00:43:39.109Z,96563.69
2023-04-05T00:44:41.248Z,96571.31
2023-04-05T00:45:45.914Z,96561.16
2023-04-05T00:46:48.165Z,96563.66
2023-04-05T00:47:52.957Z,96558.56
2023-04-05T00:48:55.200Z,96562.81
2023-04-05T00:50:00.292Z,96559.44
2023-04-05T00:51:02.493Z,96560.31
2023-04-05T00:52:09.961Z,96561.97
2023-04-05T00:53:12.401Z,96552.66
2023-04-05T00:54:17.719Z,96555.19
2023-04-05T00:55:20.344Z,96557.72
2023-04-05T00:56:25.741Z,96554.38
2023-04-05T00:57:30.355Z,96553.50
2023-04-05T00:58:35.067Z,96553.47
2023-04-05T00:59:37.135Z,96550.94
2023-04-05T01:00:42.525Z,96551.81
2023-04-05T01:01:55.042Z,96548.38
2023-04-05T01:03:03.963Z,96550.94
2023-04-05T01:04:07.601Z,96547.56
2023-04-05T01:05:21.620Z,96548.41
2023-04-05T01:06:36.411Z,96544.16
2023-04-05T01:07:49.233Z,96545.06
2023-04-05T01:09:00.880Z,96545.91
2023-04-05T01:10:06.264Z,96538.31
2023-04-05T01:11:09.617Z,96534.91
2023-04-05T01:12:19.973Z,96541.72
2023-04-05T01:13:23.171Z,96534.09
2023-04-05T01:14:27.856Z,96533.28
2023-04-05T01:15:30.074Z,96532.44
2023-04-05T01:16:34.850Z,96532.44
2023-04-05T01:17:39.380Z,96529.03
2023-04-05T01:18:47.381Z,96528.13
2023-04-05T01:19:53.591Z,96523.91
2023-04-05T01:21:10.727Z,96533.19
2023-04-05T01:22:41.432Z,96523.03
2023-04-05T01:23:58.706Z,96523.06
2023-04-05T01:25:24.631Z,96518.88
2023-04-05T01:26:56.834Z,96517.16
2023-04-05T01:28:22.679Z,96518.81
2023-04-05T01:29:56.084Z,96515.41
2023-04-05T01:31:08.339Z,96519.56
2023-04-05T01:32:18.778Z,96512.84
2023-04-05T01:33:26.427Z,96514.53
2023-04-05T01:34:40.047Z,96515.41
2023-04-05T01:35:49.161Z,96512.84
2023-04-05T01:36:58.940Z,96518.75
2023-04-05T01:38:04.399Z,96511.09
2023-04-05T01:39:12.092Z,96511.94
2023-04-05T01:40:14.459Z,96511.03
2023-04-05T01:41:19.239Z,96520.34
2023-04-05T01:42:24.486Z,96507.63
2023-04-05T01:43:29.152Z,96507.66
2023-04-05T01:44:33.801Z,96511.03
2023-04-05T01:45:38.442Z,96505.09
2023-04-05T01:46:40.552Z,96506.75
2023-04-05T01:47:45.445Z,96508.41
2023-04-05T01:48:47.586Z,96503.28
2023-04-05T01:49:52.811Z,96507.50
2023-04-05T01:50:54.846Z,96511.72
2023-04-05T01:51:59.753Z,96508.31
2023-04-05T01:53:01.893Z,96503.19
2023-04-05T01:54:06.660Z,96507.47
2023-04-05T01:55:09.260Z,96503.19
2023-04-05T01:56:13.863Z,96503.19
2023-04-05T01:57:15.899Z,96498.97
2023-04-05T01:58:20.655Z,96499.78
2023-04-05T01:59:22.906Z,96505.72
2023-04-05T02:00:31.047Z,96498.09
2023-04-05T02:01:33.422Z,96488.81
2023-04-05T02:02:38.066Z,96491.34
2023-04-05T02:03:40.220Z,96494.66
2023-04-05T02:04:45.019Z,96492.94
2023-04-05T02:05:47.074Z,96495.41
2023-04-05T02:06:51.804Z,96487.84
2023-04-05T02:07:53.843Z,96486.13
2023-04-05T02:08:58.462Z,96491.19
2023-04-05T02:10:00.509Z,96496.19
2023-04-05T02:11:05.261Z,96491.97
2023-04-05T02:12:07.300Z,96491.13
2023-04-05T02:13:13.875Z,96501.28
2023-04-05T02:14:16.456Z,96499.53
2023-04-05T02:15:21.127Z,96502.09
2023-04-05T02:16:27.372Z,96494.50
2023-04-05T02:17:34.253Z,96495.31
2023-04-05T02:18:38.860Z,96492.72
2023-04-05T02:19:46.402Z,96498.59
2023-04-05T02:20:50.177Z,96496.88
2023-04-05T02:21:56.587Z,96494.34
2023-04-05T02:22:58.744Z,96490.97
2023-04-05T02:24:03.374Z,96496.03
2023-04-05T02:25:06.519Z,96495.19
2023-04-05T02:26:11.227Z,96493.50
2023-04-05T02:27:13.269Z,96490.97
2023-04-05T02:28:17.953Z,96488.41
2023-04-05T02:29:20.016Z,96485.88
2023-04-05T02:30:24.704Z,96490.94
2023-04-05T02:31:29.416Z,96491.78
2023-04-05T02:32:34.790Z,96493.47
2023-04-05T02:33:37.127Z,96493.47
2023-04-05T02:34:41.953Z,96491.75
2023-04-05T02:35:44.551Z,96494.28
2023-04-05T02:36:49.565Z,96496.84
2023-04-05T02:37:51.947Z,96487.53
2023-04-05T02:38:56.937Z,96493.50
2023-04-05T02:39:59.012Z,96489.31
2023-04-05T02:41:03.948Z,96490.19
2023-04-05T02:42:06.254Z,96486.00
2023-04-05T02:43:10.938Z,96489.41
2023-04-05T02:44:13.578Z,96486.03
2023-04-05T02:45:18.280Z,96482.66
2023-04-05T02:46:20.492Z,96487.72
2023-04-05T02:47:27.783Z,96491.09
2023-04-05T02:48:29.778Z,96478.44
2023-04-05T02:49:34.352Z,96481.78
2023-04-05T02:50:36.394Z,96481.72
2023-04-05T02:51:41.144Z,96480.06
2023-04-05T02:52:43.205Z,96475.78
2023-04-05T02:53:48.302Z,96480.88
2023-04-05T02:54:50.549Z,96472.41
2023-04-05T02:55:56.969Z,96478.31
2023-04-05T02:57:02.456Z,96474.06
2023-04-05T02:58:07.118Z,96477.44
2023-04-05T02:59:09.182Z,96471.53
2023-04-05T03:00:15.135Z,96472.38
2023-04-05T03:01:18.035Z,96478.31
2023-04-05T03:02:22.779Z,96472.44
2023-04-05T03:03:29.265Z,96471.59
2023-04-05T03:04:34.605Z,96474.09
2023-04-05T03:05:36.620Z,96472.38
2023-04-05T03:06:48.803Z,96474.06
2023-04-05T03:07:52.349Z,96472.38
2023-04-05T03:08:57.129Z,96466.47
2023-04-05T03:09:59.712Z,96475.78
2023-04-05T03:11:04.305Z,96470.72
2023-04-05T03:12:06.495Z,96469.00
2023-04-05T03:13:11.098Z,96475.81
2023-04-05T03:14:13.123Z,96468.19
2023-04-05T03:15:17.938Z,96466.47
2023-04-05T03:16:20.419Z,96462.22
2023-04-05T03:17:25.045Z,96464.72
2023-04-05T03:18:29.979Z,96460.53
2023-04-05T03:19:35.819Z,96472.34
2023-04-05T03:20:40.386Z,96468.97
2023-04-05T03:21:46.498Z,96468.13
2023-04-05T03:22:48.620Z,96463.88
2023-04-05T03:23:53.286Z,96465.53
2023-04-05T03:24:57.601Z,96462.13
2023-04-05T03:26:03.180Z,96468.03
2023-04-05T03:27:06.400Z,96461.19
2023-04-05T03:28:11.468Z,96459.50
2023-04-05T03:29:13.699Z,96467.94
2023-04-05T03:30:18.362Z,96462.81
2023-04-05T03:31:20.765Z,96461.13
2023-04-05T03:32:25.582Z,96458.53
2023-04-05T03:33:30.217Z,96464.41
2023-04-05T03:34:34.814Z,96467.66
2023-04-05T03:35:36.864Z,96470.16
2023-04-05T03:36:44.688Z,96460.06
2023-04-05T03:37:46.709Z,96464.28
2023-04-05T03:38:51.978Z,96460.00
2023-04-05T03:39:54.252Z,96466.72
2023-04-05T03:40:58.868Z,96463.38
2023-04-05T03:42:01.640Z,96470.91
2023-04-05T03:43:06.286Z,96467.47
2023-04-05T03:44:09.212Z,96471.66
2023-04-05T03:45:14.617Z,96464.94
2023-04-05T03:46:19.333Z,96469.16
2023-04-05T03:47:21.489Z,96458.25
2023-04-05T03:48:27.230Z,96454.88
2023-04-05T03:49:31.844Z,96455.75
2023-04-05T03:50:36.469Z,96457.47
2023-04-05T03:51:38.514Z,96460.03
2023-04-05T03:52:43.117Z,96459.22
2023-04-05T03:53:45.190Z,96459.19
2023-04-05T03:54:49.786Z,96454.06
2023-04-05T03:55:54.392Z,96463.34
2023-04-05T03:56:59.460Z,96449.84
2023-04-05T03:58:01.530Z,96459.97
2023-04-05T03:59:06.745Z,96461.63
2023-04-05T04:00:14.571Z,96466.69
2023-04-05T04:01:19.416Z,96459.13
2023-04-05T04:02:21.660Z,96465.03
2023-04-05T04:03:26.335Z,96463.34
2023-04-05T04:04:28.515Z,96461.63
2023-04-05T04:05:39.495Z,96455.72
2023-04-05T04:06:44.494Z,96459.97
2023-04-05T04:07:47.391Z,96470.09
2023-04-05T04:08:52.030Z,96459.13
2023-04-05T04:09:56.676Z,96460.84
2023-04-05T04:11:01.658Z,96468.44
2023-04-05T04:12:04.152Z,96468.41
2023-04-05T04:13:08.768Z,96466.69
2023-04-05T04:14:10.801Z,96467.47
2023-04-05T04:15:15.896Z,96469.16
2023-04-05T04:16:18.306Z,96469.97
2023-04-05T04:17:29.796Z,96469.97
2023-04-05T04:18:31.880Z,96469.13
2023-04-05T04:19:36.484Z,96465.72
2023-04-05T04:20:41.415Z,96463.13
2023-04-05T04:21:48.912Z,96465.63
2023-04-05T04:22:54.082Z,96463.94
2023-04-05T04:24:01.031Z,96463.97
2023-04-05T04:25:04.550Z,96465.66
2023-04-05T04:26:10.592Z,96469.06
2023-04-05T04:27:12.630Z,96469.06
2023-04-05T04:28:19.778Z,96470.78
2023-04-05T04:29:31.297Z,96467.38
2023-04-05T04:30:35.728Z,96471.59
2023-04-05T04:31:38.888Z,96471.66
2023-04-05T04:32:53.658Z,96475.91
2023-04-05T04:33:58.667Z,96469.19
2023-04-05T04:35:00.662Z,96467.53
2023-04-05T04:36:13.833Z,96470.88
2023-04-05T04:37:18.574Z,96477.59
2023-04-05T04:38:26.134Z,96464.91
2023-04-05T04:39:31.597Z,96465.72
2023-04-05T04:40:41.380Z,96467.38
2023-04-05T04:41:47.263Z,96474.97
2023-04-05T04:42:52.046Z,96470.66
2023-04-05T04:43:55.231Z,96474.03
2023-04-05T04:45:02.730Z,96474.03
2023-04-05T04:46:11.085Z,96473.16
2023-04-05T04:47:17.663Z,96475.69
2023-04-05T04:48:19.734Z,96479.88
2023-04-05T04:49:24.402Z,96471.44
2023-04-05T04:50:26.549Z,96470.53
2023-04-05T04:51:33.771Z,96474.75
2023-04-05T04:52:36.042Z,96473.13
2023-04-05T04:53:40.794Z,96468.91
2023-04-05T04:54:42.939Z,96471.44
2023-04-05T04:55:50.310Z,96475.66
2023-04-05T04:56:52.317Z,96473.19
2023-04-05T04:57:57.812Z,96467.28
2023-04-05T04:58:59.868Z,96471.53
2023-04-05T05:00:08.036Z,96473.22
2023-04-05T05:01:10.418Z,96473.28
2023-04-05T05:02:15.076Z,96472.34
2023-04-05T05:03:17.465Z,96476.59
2023-04-05T05:04:23.078Z,96474.88
2023-04-05T05:05:26.647Z,96474.88
2023-04-05T05:06:33.944Z,96479.09
2023-04-05T05:07:36.420Z,96474.00
2023-04-05T05:08:41.197Z,96473.16
2023-04-05T05:09:43.391Z,96479.91
2023-04-05T05:10:48.312Z,96476.59
2023-04-05T05:11:50.544Z,96476.59
2023-04-05T05:12:55.182Z,96469.91
2023-04-05T05:13:57.280Z,96473.28
2023-04-05T05:15:01.944Z,96469.97
2023-04-05T05:16:05.802Z,96475.03
2023-04-05T05:17:11.130Z,96468.28
2023-04-05T05:18:16.318Z,96469.16
2023-04-05T05:19:21.227Z,96465.84
2023-04-05T05:20:23.343Z,96473.50
2023-04-05T05:21:28.193Z,96463.41
2023-04-05T05:22:32.819Z,96460.88
2023-04-05T05:23:37.415Z,96466.81
2023-04-05T05:24:39.420Z,96458.41
2023-04-05T05:25:44.072Z,96461.84
2023-04-05T05:26:46.150Z,96466.09
2023-04-05T05:27:51.904Z,96466.94
2023-04-05T05:28:54.137Z,96472.03
2023-04-05T05:29:58.747Z,96469.53
2023-04-05T05:31:01.062Z,96473.78
2023-04-05T05:32:05.944Z,96479.72
2023-04-05T05:33:08.273Z,96472.16
2023-04-05T05:34:12.918Z,96474.81
2023-04-05T05:35:15.164Z,96473.16
2023-04-05T05:36:20.197Z,96468.97
2023-04-05T05:37:29.642Z,96471.50
2023-04-05T05:38:36.845Z,96465.66
2023-04-05T05:39:38.895Z,96461.41
2023-04-05T05:40:43.753Z,96464.84
2023-04-05T05:41:45.906Z,96464.03
2023-04-05T05:42:50.546Z,96470.00
2023-04-05T05:43:53.820Z,96466.63
2023-04-05T05:44:58.487Z,96469.25
2023-04-05T05:46:01.457Z,96474.34
2023-04-05T05:47:06.222Z,96462.56
2023-04-05T05:48:08.265Z,96468.56
2023-04-05T05:49:12.876Z,96473.66
2023-04-05T05:50:17.716Z,96472.84
2023-04-05T05:51:19.740Z,96472.91
2023-04-05T05:52:24.356Z,96472.97
2023-04-05T05:53:26.420Z,96469.63
2023-04-05T05:54:33.711Z,96466.28
2023-04-05T05:55:35.702Z,96471.41
2023-04-05T05:56:40.340Z,96468.03
2023-04-05T05:57:42.393Z,96471.50
2023-04-05T05:58:47.156Z,96474.06
2023-04-05T05:59:51.857Z,96477.47
2023-04-05T06:00:57.098Z,96474.13
2023-04-05T06:02:01.696Z,96482.63
2023-04-05T06:03:04.753Z,96478.44
2023-04-05T06:04:09.676Z,96479.34
2023-04-05T06:05:11.999Z,96473.44
2023-04-05T06:06:16.575Z,96476.84
2023-04-05T06:07:21.521Z,96476.06
2023-04-05T06:08:24.127Z,96474.41
2023-04-05T06:09:29.102Z,96471.88
2023-04-05T06:10:38.023Z,96471.94
2023-04-05T06:11:53.169Z,96472.78
2023-04-05T06:12:58.189Z,96476.22
2023-04-05T06:14:02.808Z,96475.38
2023-04-05T06:15:06.098Z,96474.56
2023-04-05T06:16:10.836Z,96470.34
2023-04-05T06:17:15.620Z,96472.03
2023-04-05T06:18:17.792Z,96472.06
2023-04-05T06:19:22.392Z,96473.75
2023-04-05T06:20:24.421Z,96474.66
2023-04-05T06:21:29.189Z,96473.00
2023-04-05T06:22:31.632Z,96473.03
2023-04-05T06:23:36.347Z,96477.25
2023-04-05T06:24:38.367Z,96477.28
2023-04-05T06:25:46.494Z,96471.38
2023-04-05T06:26:51.127Z,96463.75
2023-04-05T06:27:53.158Z,96466.31
2023-04-05T06:28:57.976Z,96469.72
2023-04-05T06:30:00.387Z,96467.22
2023-04-05T06:31:05.023Z,96472.31
2023-04-05T06:32:09.786Z,96463.81
2023-04-05T06:33:11.986Z,96467.22
2023-04-05T06:34:16.691Z,96463.84
2023-04-05T06:35:21.560Z,96468.97
2023-04-05T06:36:27.840Z,96469.81
2023-04-05T06:37:33.328Z,96470.66
2023-04-05T06:38:35.777Z,96467.28
2023-04-05T06:39:40.604Z,96466.44
2023-04-05T06:40:47.846Z,96472.38
2023-04-05T06:41:49.946Z,96467.28
2023-04-05T06:42:54.574Z,96472.41
2023-04-05T06:43:59.331Z,96475.78
2023-04-05T06:45:03.576Z,96476.63
2023-04-05T06:46:11.588Z,96476.63
2023-04-05T06:47:16.688Z,96469.00
2023-04-05T06:48:18.702Z,96479.19
2023-04-05T06:49:23.435Z,96475.78
2023-04-05T06:50:25.523Z,96472.38
2023-04-05T06:51:30.185Z,96468.13
2023-04-05T06:52:32.944Z,96468.94
2023-04-05T06:53:37.592Z,96463.84
2023-04-05T06:54:39.692Z,96473.19
2023-04-05T06:55:51.625Z,96465.50
2023-04-05T06:56:57.773Z,96468.03
2023-04-05T06:58:01.201Z,96470.53
2023-04-05T06:59:05.911Z,96472.19
2023-04-05T07:00:11.247Z,96458.59
2023-04-05T07:01:17.559Z,96461.97
2023-04-05T07:02:22.343Z,96467.03
2023-04-05T07:03:26.921Z,96460.19
2023-04-05T07:04:33.615Z,96454.19
2023-04-05T07:05:38.249Z,96453.31
2023-04-05T07:06:42.843Z,96453.28
2023-04-05T07:07:45.742Z,96450.69
2023-04-05T07:08:50.322Z,96460.84
2023-04-05T07:09:52.424Z,96459.09
2023-04-05T07:10:59.692Z,96453.06
2023-04-05T07:12:06.601Z,96448.78
2023-04-05T07:13:08.681Z,96452.13
2023-04-05T07:14:13.286Z,96445.28
2023-04-05T07:15:18.184Z,96452.91
2023-04-05T07:16:23.742Z,96444.38
2023-04-05T07:17:28.747Z,96442.59
2023-04-05T07:18:33.481Z,96450.16
2023-04-05T07:19:35.689Z,96445.84
2023-04-05T07:20:40.768Z,96448.34
2023-04-05T07:21:43.107Z,96444.03
2023-04-05T07:22:47.804Z,96444.84
2023-04-05T07:23:49.997Z,96447.34
2023-04-05T07:24:55.725Z,96443.09
2023-04-05T07:26:04.986Z,96444.75
2023-04-05T07:27:09.682Z,96452.38
2023-04-05T07:28:11.763Z,96441.28
2023-04-05T07:29:16.989Z,96447.22
2023-04-05T07:30:19.089Z,96454.81
2023-04-05T07:31:23.695Z,96443.72
2023-04-05T07:32:26.117Z,96443.69
2023-04-05T07:33:31.068Z,96438.47
2023-04-05T07:34:35.766Z,96435.81
2023-04-05T07:35:37.884Z,96429.78
2023-04-05T07:36:42.639Z,96431.47
2023-04-05T07:37:47.280Z,96433.91
2023-04-05T07:38:51.905Z,96433.84
2023-04-05T07:39:53.938Z,96432.88
2023-04-05T07:40:59.125Z,96439.69
2023-04-05T07:42:06.687Z,96441.31
2023-04-05T07:43:08.737Z,96436.94
2023-04-05T07:44:13.622Z,96435.97
2023-04-05T07:45:15.732Z,96436.69
2023-04-05T07:46:20.561Z,96440.94
2023-04-05T07:47:25.828Z,96443.41
2023-04-05T07:48:30.510Z,96440.69
2023-04-05T07:49:35.143Z,96438.81
2023-04-05T07:50:39.958Z,96437.94
2023-04-05T07:51:44.749Z,96442.94
2023-04-05T07:52:49.411Z,96438.56
2023-04-05T07:53:51.507Z,96436.78
2023-04-05T07:54:56.097Z,96447.06
2023-04-05T07:55:59.279Z,96443.56
2023-04-05T07:57:06.641Z,96438.31
2023-04-05T07:58:08.643Z,96439.94
2023-04-05T07:59:14.918Z,96438.09
2023-04-05T08:00:18.003Z,96435.41
2023-04-05T08:01:27.766Z,96443.81
2023-04-05T08:02:29.829Z,96438.56
2023-04-05T08:03:35.675Z,96438.41
2023-04-05T08:04:40.616Z,96438.25
2023-04-05T08:05:45.253Z,96437.38
2023-04-05T08:06:47.668Z,96435.50
2023-04-05T08:07:52.325Z,96434.47
2023-04-05T08:08:54.364Z,96434.34
2023-04-05T08:10:00.191Z,96436.78
2023-04-05T08:11:03.635Z,96433.25
2023-04-05T08:12:11.667Z,96438.25
2023-04-05T08:13:16.387Z,96441.50
2023-04-05T08:14:21.413Z,96445.69
2023-04-05T08:15:26.021Z,96438.88
2023-04-05T08:16:28.322Z,96437.88
2023-04-05T08:17:33.050Z,96432.78
2023-04-05T08:18:35.177Z,96440.66
2023-04-05T08:19:39.818Z,96443.03
2023-04-05T08:20:42.141Z,96442.81
2023-04-05T08:21:47.039Z,96444.34
2023-04-05T08:22:51.657Z,96440.72
2023-04-05T08:23:53.735Z,96437.16
2023-04-05T08:24:58.458Z,96438.69
2023-04-05T08:26:00.810Z,96437.69
2023-04-05T08:27:05.442Z,96440.94
2023-04-05T08:28:10.418Z,96434.72
2023-04-05T08:29:15.021Z,96436.38
2023-04-05T08:30:20.110Z,96438.88
2023-04-05T08:31:24.776Z,96424.81
2023-04-05T08:32:29.463Z,96427.13
2023-04-05T08:33:34.385Z,96430.34
2023-04-05T08:34:39.487Z,96433.56
2023-04-05T08:35:43.248Z,96433.31
2023-04-05T08:36:48.840Z,96434.19
2023-04-05T08:37:53.599Z,96429.47
2023-04-05T08:38:58.190Z,96430.84
2023-04-05T08:40:00.233Z,96427.06
2023-04-05T08:41:11.135Z,96429.63
2023-04-05T08:42:17.534Z,96424.00
2023-04-05T08:43:36.706Z,96433.22
2023-04-05T08:44:44.132Z,96429.91
2023-04-05T08:45:52.732Z,96427.88
2023-04-05T08:46:56.346Z,96421.56
2023-04-05T08:48:01.601Z,96424.31
2023-04-05T08:49:11.647Z,96422.75
2023-04-05T08:50:23.522Z,96427.97
2023-04-05T08:51:35.502Z,96421.34
2023-04-05T08:52:43.952Z,96422.59
2023-04-05T08:53:50.158Z,96412.56
2023-04-05T08:54:59.894Z,96415.06
2023-04-05T08:56:04.839Z,96412.78
2023-04-05T08:57:10.434Z,96410.34
2023-04-05T08:58:17.920Z,96399.94
2023-04-05T08:59:28.238Z,96404.66
2023-04-05T09:00:31.861Z,96406.63
2023-04-05T09:01:54.784Z,96411.28
2023-04-05T09:04:45.298Z,96400.38
2023-04-05T09:07:01.851Z,96397.94
2023-04-05T09:08:04.969Z,96397.56
2023-04-05T09:09:14.558Z,96394.28
2023-04-05T09:10:23.408Z,96395.66
2023-04-05T09:11:26.746Z,96397.88
2023-04-05T09:12:34.356Z,96396.88
2023-04-05T09:13:40.218Z,96399.03
2023-04-05T09:14:46.917Z,96389.78
2023-04-05T09:15:53.013Z,96398.69
2023-04-05T09:16:59.187Z,96397.00
2023-04-05T09:18:07.549Z,96385.47
2023-04-05T09:19:20.952Z,96383.09
2023-04-05T09:20:24.547Z,96393.16
2023-04-05T09:21:32.878Z,96388.91
2023-04-05T09:22:45.086Z,96386.53
2023-04-05T09:23:57.697Z,96392.13
2023-04-05T09:25:04.213Z,96399.75
2023-04-05T09:26:22.139Z,96400.69
2023-04-05T09:27:28.756Z,96403.28
2023-04-05T09:28:45.851Z,96389.59
2023-04-05T09:29:54.909Z,96389.59
2023-04-05T09:30:58.843Z,96397.44
2023-04-05T09:32:06.512Z,96394.13
2023-04-05T09:33:11.636Z,96392.38
2023-04-05T09:34:28.398Z,96394.34
2023-04-05T09:35:36.292Z,96398.63
2023-04-05T09:36:44.592Z,96396.25
2023-04-05T09:37:56.557Z,96384.38
2023-04-05T09:39:06.526Z,96382.59
2023-04-05T09:40:15.238Z,96374.03
2023-04-05T09:41:21.058Z,96374.41
2023-04-05T09:42:26.996Z,96379.97
2023-04-05T09:43:40.575Z,96378.78
2023-04-05T09:45:20.083Z,96382.00
2023-04-05T09:46:38.545Z,96383.41
2023-04-05T09:47:42.996Z,96380.69
2023-04-05T09:48:52.751Z,96382.25
2023-04-05T09:50:01.869Z,96372.69
2023-04-05T09:52:25.704Z,96370.97
2023-04-05T09:53:37.890Z,96374.19
2023-04-05T09:54:44.127Z,96377.19
2023-04-05T09:55:50.976Z,96379.44
2023-04-05T09:56:58.499Z,96377.44
2023-04-05T09:58:06.565Z,96373.66
2023-04-05T09:59:14.332Z,96367.72
2023-04-05T10:00:24.677Z,96378.66
2023-04-05T10:01:32.577Z,96376.16
2023-04-05T10:02:43.590Z,96383.09
2023-04-05T10:03:50.602Z,96368.16
2023-04-05T10:04:57.135Z,96380.41
2023-04-05T10:06:01.836Z,96380.19
2023-04-05T10:07:08.553Z,96369.59
2023-04-05T10:08:15.737Z,96371.97
2023-04-05T10:09:21.322Z,96372.09
2023-04-05T10:10:27.449Z,96360.78
2023-04-05T10:11:31.019Z,96362.66
2023-04-05T10:12:39.354Z,96355.97
2023-04-05T10:13:46.277Z,96351.28
2023-04-05T10:14:52.627Z,96367.41
2023-04-05T10:16:05.839Z,96353.84
2023-04-05T10:17:16.971Z,96354.00
2023-04-05T10:18:28.628Z,96362.50
2023-04-05T10:19:38.503Z,96351.53
2023-04-05T10:20:48.180Z,96356.38
2023-04-05T10:21:55.372Z,96348.97
2023-04-05T10:23:10.829Z,96348.44
2023-04-05T10:24:26.896Z,96350.31
2023-04-05T10:25:43.778Z,96353.50
2023-04-05T10:26:58.623Z,96350.41
2023-04-05T10:28:09.904Z,96347.28
2023-04-05T10:29:18.268Z,96344.84
2023-04-05T10:30:27.998Z,96342.31
2023-04-05T10:31:47.044Z,96356.38
2023-04-05T10:33:07.760Z,96354.91
2023-04-05T10:34:27.881Z,96359.47
2023-04-05T10:35:43.041Z,96348.56
2023-04-05T10:36:59.150Z,96355.97
2023-04-05T10:38:17.396Z,96357.03
2023-04-05T10:39:30.084Z,96358.97
2023-04-05T10:40:38.918Z,96352.41
2023-04-05T10:41:54.222Z,96349.72
2023-04-05T10:43:01.229Z,96349.22
2023-04-05T10:44:25.064Z,96352.50
2023-04-05T10:45:35.664Z,96351.88
2023-04-05T10:46:45.911Z,96369.50
2023-04-05T10:47:59.197Z,96357.44
2023-04-05T10:49:10.851Z,96338.28
2023-04-05T10:50:27.585Z,96352.34
2023-04-05T10:51:44.602Z,96332.81
2023-04-05T10:52:49.633Z,96337.50
2023-04-05T10:53:56.987Z,96346.56
2023-04-05T10:55:04.395Z,96359.78
2023-04-05T10:56:12.588Z,96349.44
2023-04-05T10:57:20.651Z,96351.03
2023-04-05T10:58:28.979Z,96344.25
2023-04-05T10:59:33.437Z,96351.03
2023-04-05T11:00:40.180Z,96343.66
2023-04-05T11:01:50.291Z,96347.19
2023-04-05T11:02:59.859Z,96340.41
2023-04-05T11:04:13.064Z,96329.53
2023-04-05T11:05:35.978Z,96338.44
2023-04-05T11:06:42.263Z,96339.00
2023-04-05T11:07:50.186Z,96344.25
2023-04-05T11:08:59.324Z,96343.59
2023-04-05T11:10:07.452Z,96340.03
2023-04-05T11:11:12.031Z,96336.28
2023-04-05T11:12:20.024Z,96336.38
2023-04-05T11:13:53.148Z,96334.44
2023-04-05T11:15:36.788Z,96331.06
2023-04-05T11:16:44.646Z,96330.94
2023-04-05T11:18:06.795Z,96332.53
2023-04-05T11:19:14.210Z,96338.59
2023-04-05T11:20:18.254Z,96332.00
2023-04-05T11:21:27.153Z,96325.38
2023-04-05T11:22:34.626Z,96316.91
2023-04-05T11:24:05.236Z,96320.44
2023-04-05T11:25:22.905Z,96315.31
2023-04-05T11:26:35.755Z,96316.50
2023-04-05T11:27:42.259Z,96315.72
2023-04-05T11:28:48.699Z,96321.22
2023-04-05T11:29:52.483Z,96319.94
2023-04-05T11:31:00.302Z,96312.19
2023-04-05T11:32:13.557Z,96304.78
2023-04-05T11:33:59.335Z,96299.09
2023-04-05T11:35:10.953Z,96298.88
2023-04-05T11:36:16.356Z,96302.25
2023-04-05T11:37:22.457Z,96309.47
2023-04-05T11:38:25.845Z,96315.56
2023-04-05T11:39:33.636Z,96322.63
2023-04-05T11:40:41.577Z,96317.28
2023-04-05T11:41:49.225Z,96311.00
2023-04-05T11:43:00.556Z,96315.94
2023-04-05T11:44:08.936Z,96309.59
2023-04-05T11:45:12.473Z,96315.59
2023-04-05T11:46:19.788Z,96307.94
2023-04-05T11:47:26.386Z,96302.19
2023-04-05T11:48:31.278Z,96306.06
2023-04-05T11:49:40.592Z,96308.44
2023-04-05T11:50:47.824Z,96305.03
2023-04-05T11:51:54.030Z,96311.34
2023-04-05T11:53:16.883Z,96315.38
2023-04-05T11:54:36.471Z,96320.03
2023-04-05T11:55:40.568Z,96318.00
2023-04-05T11:56:55.797Z,96322.09
2023-04-05T11:58:02.663Z,96304.94
2023-04-05T11:59:09.095Z,96312.91
2023-04-05T12:00:20.692Z,96312.03
2023-04-05T12:01:23.799Z,96300.28
2023-04-05T12:02:30.695Z,96304.75
2023-04-05T12:03:35.142Z,96308.34
2023-04-05T12:04:44.105Z,96312.59
2023-04-05T12:05:51.036Z,96307.38
2023-04-05T12:07:15.381Z,96299.56
2023-04-05T12:08:19.008Z,96302.16
2023-04-05T12:09:25.615Z,96298.28
2023-04-05T12:10:32.164Z,96307.31
2023-04-05T12:11:42.179Z,96307.31
2023-04-05T12:12:49.837Z,96292.75
2023-04-05T12:13:59.659Z,96294.16
2023-04-05T12:15:04.454Z,96286.84
2023-04-05T12:16:12.973Z,96286.94
2023-04-05T12:17:16.215Z,96286.09
2023-04-05T12:18:25.274Z,96284.00
2023-04-05T12:19:31.840Z,96270.28
2023-04-05T12:20:41.259Z,96277.38
2023-04-05T12:21:47.912Z,96284.97
2023-04-05T12:22:54.092Z,96274.03
2023-04-05T12:24:00.655Z,96279.88
2023-04-05T12:25:05.164Z,96271.78
2023-04-05T12:26:12.497Z,96278.63
2023-04-05T12:27:16.676Z,96268.22
2023-04-05T12:28:23.456Z,96266.56
2023-04-05T12:29:27.464Z,96254.34
2023-04-05T12:30:37.592Z,96252.06
2023-04-05T12:31:42.399Z,96262.47
2023-04-05T12:32:54.520Z,96253.38
2023-04-05T12:34:00.893Z,96248.56
2023-04-05T12:35:11.849Z,96248.00
2023-04-05T12:36:24.516Z,96252.63
2023-04-05T12:37:28.840Z,96250.84
2023-04-05T12:38:34.956Z,96239.53
2023-04-05T12:39:40.099Z,96238.34
2023-04-05T12:40:49.109Z,96237.19
2023-04-05T12:42:02.469Z,96233.09
2023-04-05T12:43:10.541Z,96236.41
2023-04-05T12:44:16.990Z,96238.34
2023-04-05T12:45:27.987Z,96232.25
2023-04-05T12:46:44.246Z,96241.09
2023-04-05T12:47:56.645Z,96248.91
2023-04-05T12:49:04.235Z,96236.56
2023-04-05T12:50:19.031Z,96228.03
2023-04-05T12:51:28.994Z,96230.78
2023-04-05T12:52:33.682Z,96232.94
2023-04-05T12:53:51.782Z,96225.34
2023-04-05T12:56:42.400Z,96230.13
2023-04-05T12:57:46.567Z,96208.59
2023-04-05T12:58:53.765Z,96217.75
2023-04-05T12:59:57.098Z,96218.38
2023-04-05T13:01:03.241Z,96210.69
2023-04-05T13:02:06.363Z,96195.28
2023-04-05T13:03:21.445Z,96202.97
2023-04-05T13:04:27.153Z,96203.16
2023-04-05T13:05:34.112Z,96200.78
2023-04-05T13:06:42.567Z,96209.22